Time;durP1;ratioP1;P1;durP2;ratioP2;P2;SDS_P1;SDS_P2;PMS_P1;PMS_P2;Temp;Humidity;BMP_temperature;BMP_pressure;BME280_temperature;BME280_humidity;BME280_pressure;Samples;Min_cycle;Max_cycle;Signal;HPM_P1;HPM_P2
2023/10/27 00:00:55;;;;;;;19.42;4.80;;;;;;;;;;5013444;28;20029;-41
2023/10/27 00:03:22;;;;;;;19.88;4.43;;;;;;;;;;5024873;28;20119;-43
2023/10/27 00:05:49;;;;;;;16.55;3.67;;;;;;;;;;5024548;28;20022;-42
2023/10/27 00:08:16;;;;;;;23.48;5.18;;;;;;;;;;5013223;28;20395;-43
2023/10/27 00:10:43;;;;;;;28.30;5.20;;;;;;;;;;5031023;28;20029;-42
2023/10/27 00:13:10;;;;;;;28.42;4.90;;;;;;;;;;5030430;28;20033;-43
2023/10/27 00:15:37;;;;;;;20.85;4.55;;;;;;;;;;5030364;28;20025;-44
2023/10/27 00:18:04;;;;;;;22.23;4.35;;;;;;;;;;5030857;28;20041;-44
2023/10/27 00:20:32;;;;;;;21.55;4.50;;;;;;;;;;5030988;28;20391;-44
2023/10/27 00:22:59;;;;;;;16.58;4.88;;;;;;;;;;5030974;28;20028;-43
2023/10/27 00:25:26;;;;;;;18.27;5.10;;;;;;;;;;5030797;28;20037;-43
2023/10/27 00:27:53;;;;;;;20.05;4.97;;;;;;;;;;5030430;28;20034;-42
2023/10/27 00:30:20;;;;;;;16.00;5.18;;;;;;;;;;5030994;28;20029;-44
2023/10/27 00:32:47;;;;;;;17.75;5.38;;;;;;;;;;5030308;28;20603;-43
2023/10/27 00:35:14;;;;;;;16.70;5.65;;;;;;;;;;5030716;28;20025;-44
2023/10/27 00:37:41;;;;;;;20.05;6.10;;;;;;;;;;5030914;28;20474;-43
2023/10/27 00:40:09;;;;;;;21.83;6.93;;;;;;;;;;5030720;28;20384;-43
2023/10/27 00:42:36;;;;;;;18.83;6.32;;;;;;;;;;5030398;28;20029;-44
2023/10/27 00:45:04;;;;;;;20.48;6.03;;;;;;;;;;5030672;28;20036;-44
2023/10/27 00:47:31;;;;;;;23.08;6.00;;;;;;;;;;5030672;28;20136;-43
2023/10/27 00:49:58;;;;;;;26.80;7.43;;;;;;;;;;5030657;28;20379;-42
2023/10/27 00:52:26;;;;;;;32.35;8.60;;;;;;;;;;5030598;28;20108;-44
2023/10/27 00:54:54;;;;;;;43.50;10.75;;;;;;;;;;5012955;28;20035;-44
2023/10/27 00:57:23;;;;;;;47.15;12.38;;;;;;;;;;5030600;28;20061;-48
2023/10/27 00:59:50;;;;;;;48.47;14.82;;;;;;;;;;5030555;28;20052;-43
2023/10/27 01:02:18;;;;;;;56.20;16.67;;;;;;;;;;5029278;28;20041;-44
2023/10/27 01:04:46;;;;;;;53.83;17.58;;;;;;;;;;5045482;28;20045;-43
2023/10/27 01:07:13;;;;;;;64.43;19.65;;;;;;;;;;5030261;28;20072;-44
2023/10/27 01:09:40;;;;;;;59.90;19.73;;;;;;;;;;5024949;28;20032;-43
2023/10/27 01:12:08;;;;;;;63.67;19.58;;;;;;;;;;5030669;28;20029;-40
2023/10/27 01:14:35;;;;;;;56.42;17.15;;;;;;;;;;5030223;28;20029;-42
2023/10/27 01:17:02;;;;;;;54.20;18.05;;;;;;;;;;5030318;28;20510;-48
2023/10/27 01:19:29;;;;;;;48.67;16.85;;;;;;;;;;5028741;28;20152;-43
2023/10/27 01:21:56;;;;;;;56.63;17.17;;;;;;;;;;5011170;28;20498;-44
2023/10/27 01:24:23;;;;;;;54.53;16.60;;;;;;;;;;5026847;28;20033;-42
2023/10/27 01:26:51;;;;;;;49.92;16.63;;;;;;;;;;5033372;28;20033;-44
2023/10/27 01:29:20;;;;;;;44.65;16.00;;;;;;;;;;5032470;28;20113;-42
2023/10/27 01:31:47;;;;;;;45.58;15.32;;;;;;;;;;5032948;28;20038;-43
2023/10/27 01:34:14;;;;;;;37.63;14.20;;;;;;;;;;5031763;28;20041;-41
2023/10/27 01:36:42;;;;;;;44.50;15.27;;;;;;;;;;5032628;28;20033;-42
2023/10/27 01:39:09;;;;;;;43.25;14.50;;;;;;;;;;5030327;28;20037;-41
2023/10/27 01:41:35;;;;;;;50.75;15.80;;;;;;;;;;5031825;28;20430;-41
2023/10/27 01:44:02;;;;;;;40.80;14.05;;;;;;;;;;5030306;28;20725;-44
2023/10/27 01:46:30;;;;;;;37.50;12.60;;;;;;;;;;5031598;28;20040;-42
2023/10/27 01:48:57;;;;;;;37.35;13.30;;;;;;;;;;5033711;28;20033;-42
2023/10/27 01:51:23;;;;;;;40.35;12.85;;;;;;;;;;5015167;28;20415;-41
2023/10/27 01:53:51;;;;;;;33.75;12.60;;;;;;;;;;5033372;28;20038;-49
2023/10/27 01:56:18;;;;;;;34.65;12.43;;;;;;;;;;5028654;28;20041;-43
2023/10/27 01:58:45;;;;;;;37.30;11.68;;;;;;;;;;5025057;28;20545;-40
2023/10/27 02:01:14;;;;;;;37.15;12.32;;;;;;;;;;5033171;28;20033;-41
2023/10/27 02:03:41;;;;;;;28.45;10.82;;;;;;;;;;5033010;28;20083;-41
2023/10/27 02:06:08;;;;;;;31.42;11.55;;;;;;;;;;5032099;28;20052;-46
2023/10/27 02:08:35;;;;;;;34.72;11.30;;;;;;;;;;5032292;28;20082;-41
2023/10/27 02:11:03;;;;;;;32.67;11.52;;;;;;;;;;5031813;28;20021;-43
2023/10/27 02:13:30;;;;;;;25.65;9.65;;;;;;;;;;5031913;28;20033;-42
2023/10/27 02:15:57;;;;;;;26.27;10.18;;;;;;;;;;5022146;28;20030;-40
2023/10/27 02:18:24;;;;;;;25.35;9.63;;;;;;;;;;5030169;28;20044;-39
2023/10/27 02:20:51;;;;;;;25.38;9.02;;;;;;;;;;5032555;28;20557;-39
2023/10/27 02:23:18;;;;;;;22.45;8.48;;;;;;;;;;5032329;28;20069;-40
2023/10/27 02:25:46;;;;;;;23.55;9.15;;;;;;;;;;5029407;28;20029;-40
2023/10/27 02:28:13;;;;;;;20.60;9.07;;;;;;;;;;5013309;28;20033;-41
2023/10/27 02:30:40;;;;;;;21.70;8.65;;;;;;;;;;5031628;28;20032;-41
2023/10/27 02:33:07;;;;;;;22.77;8.23;;;;;;;;;;5031064;28;20045;-40
2023/10/27 02:35:34;;;;;;;26.75;8.88;;;;;;;;;;5030963;28;20025;-41
2023/10/27 02:38:04;;;;;;;26.08;8.27;;;;;;;;;;5031439;28;20041;-42
2023/10/27 02:40:31;;;;;;;24.83;8.32;;;;;;;;;;5032049;28;20035;-42
2023/10/27 02:42:58;;;;;;;21.25;8.70;;;;;;;;;;5032462;28;20021;-42
2023/10/27 02:45:25;;;;;;;19.75;7.88;;;;;;;;;;5030238;28;20041;-45
2023/10/27 02:47:52;;;;;;;18.75;7.03;;;;;;;;;;5032938;28;20101;-41
2023/10/27 02:50:19;;;;;;;18.48;6.70;;;;;;;;;;5032384;28;20033;-40
2023/10/27 02:52:46;;;;;;;18.35;6.90;;;;;;;;;;5032724;28;20037;-43
2023/10/27 02:55:13;;;;;;;17.80;7.38;;;;;;;;;;5032312;28;20040;-40
2023/10/27 02:57:40;;;;;;;16.48;6.50;;;;;;;;;;5031952;28;20116;-43
2023/10/27 03:00:07;;;;;;;15.85;6.90;;;;;;;;;;5014462;28;20514;-44
2023/10/27 03:02:35;;;;;;;18.25;6.28;;;;;;;;;;5032110;28;20051;-41
2023/10/27 03:05:02;;;;;;;15.23;6.05;;;;;;;;;;5029470;28;20495;-40
2023/10/27 03:07:29;;;;;;;18.00;6.68;;;;;;;;;;5014933;28;20514;-43
2023/10/27 03:09:56;;;;;;;14.38;5.93;;;;;;;;;;5032773;28;20021;-43
2023/10/27 03:12:23;;;;;;;15.25;5.88;;;;;;;;;;5032701;28;20084;-41
2023/10/27 03:14:50;;;;;;;14.55;7.03;;;;;;;;;;5032770;28;20205;-41
2023/10/27 03:17:17;;;;;;;13.43;6.18;;;;;;;;;;5032507;28;20084;-41
2023/10/27 03:19:44;;;;;;;16.20;6.20;;;;;;;;;;5032544;28;20055;-41
2023/10/27 03:22:11;;;;;;;14.70;6.13;;;;;;;;;;5032556;28;20021;-45
2023/10/27 03:24:38;;;;;;;12.82;5.65;;;;;;;;;;5032505;28;20061;-43
2023/10/27 03:27:05;;;;;;;13.13;5.97;;;;;;;;;;5032322;28;20026;-41
2023/10/27 03:29:32;;;;;;;12.60;5.60;;;;;;;;;;5032358;28;20030;-43
2023/10/27 03:32:00;;;;;;;11.98;5.65;;;;;;;;;;5032157;28;20099;-41
2023/10/27 03:34:27;;;;;;;14.20;5.80;;;;;;;;;;5032175;28;20037;-43
2023/10/27 03:36:54;;;;;;;14.82;5.75;;;;;;;;;;5032012;28;20029;-44
2023/10/27 03:39:21;;;;;;;11.65;5.30;;;;;;;;;;5032288;28;20036;-43
2023/10/27 03:41:48;;;;;;;11.93;4.68;;;;;;;;;;5031791;28;20041;-44
2023/10/27 03:44:15;;;;;;;13.60;5.50;;;;;;;;;;5031567;28;20027;-44
2023/10/27 03:46:42;;;;;;;12.05;5.07;;;;;;;;;;5031175;28;20037;-44
2023/10/27 03:49:09;;;;;;;12.25;5.30;;;;;;;;;;5031420;28;20029;-44
2023/10/27 03:51:36;;;;;;;15.57;5.45;;;;;;;;;;5032085;28;20025;-44
2023/10/27 03:54:03;;;;;;;12.00;4.85;;;;;;;;;;5032122;28;20033;-44
2023/10/27 03:56:31;;;;;;;10.10;5.03;;;;;;;;;;5031852;28;20080;-44
2023/10/27 03:58:58;;;;;;;11.88;4.70;;;;;;;;;;5031744;28;20041;-44
2023/10/27 04:01:28;;;;;;;10.93;4.93;;;;;;;;;;5031932;28;20025;-44
2023/10/27 04:03:55;;;;;;;12.95;4.53;;;;;;;;;;5031828;28;20072;-44
2023/10/27 04:06:22;;;;;;;9.70;4.20;;;;;;;;;;5031690;28;20033;-44
2023/10/27 04:08:49;;;;;;;11.75;4.90;;;;;;;;;;5031888;28;20028;-45
2023/10/27 04:11:16;;;;;;;11.98;4.63;;;;;;;;;;5031686;28;20033;-44
2023/10/27 04:13:43;;;;;;;11.45;4.68;;;;;;;;;;5014029;28;20110;-44
2023/10/27 04:16:10;;;;;;;9.43;4.28;;;;;;;;;;5031714;28;20025;-45
2023/10/27 04:18:37;;;;;;;9.90;4.18;;;;;;;;;;5031501;28;20072;-46
2023/10/27 04:21:04;;;;;;;9.02;4.18;;;;;;;;;;5031660;28;20044;-43
2023/10/27 04:23:32;;;;;;;9.77;4.50;;;;;;;;;;5031584;28;20029;-44
2023/10/27 04:25:59;;;;;;;10.75;4.32;;;;;;;;;;5031580;28;20431;-43
2023/10/27 04:28:26;;;;;;;9.43;3.95;;;;;;;;;;5031512;28;20041;-44
2023/10/27 04:30:53;;;;;;;11.35;4.45;;;;;;;;;;5031601;28;20101;-46
2023/10/27 04:33:22;;;;;;;10.18;4.22;;;;;;;;;;5031423;28;20515;-44
2023/10/27 04:35:49;;;;;;;7.05;3.70;;;;;;;;;;5031394;28;20029;-44
2023/10/27 04:38:16;;;;;;;6.25;3.50;;;;;;;;;;5031306;28;20045;-44
2023/10/27 04:40:43;;;;;;;7.80;3.78;;;;;;;;;;5031465;28;20026;-44
2023/10/27 04:43:10;;;;;;;7.88;3.60;;;;;;;;;;5031510;28;20033;-43
2023/10/27 04:45:37;;;;;;;7.38;4.40;;;;;;;;;;5031452;28;20460;-45
2023/10/27 04:48:05;;;;;;;8.38;3.72;;;;;;;;;;5031282;28;20033;-44
2023/10/27 04:50:35;;;;;;;6.65;3.53;;;;;;;;;;5031350;28;20048;-44
2023/10/27 04:53:02;;;;;;;8.60;3.70;;;;;;;;;;5031297;28;20057;-44
2023/10/27 04:55:29;;;;;;;9.98;3.45;;;;;;;;;;5031312;28;20029;-44
2023/10/27 04:57:56;;;;;;;6.72;3.25;;;;;;;;;;5031175;28;20041;-44
2023/10/27 05:00:23;;;;;;;7.57;3.33;;;;;;;;;;5035059;28;20513;-44
2023/10/27 05:02:53;;;;;;;7.03;3.25;;;;;;;;;;5035248;28;20104;-45
2023/10/27 05:05:20;;;;;;;7.22;3.10;;;;;;;;;;5017321;28;20491;-44
2023/10/27 05:07:49;;;;;;;5.65;2.75;;;;;;;;;;5034913;28;20656;-44
2023/10/27 05:10:16;;;;;;;8.23;3.40;;;;;;;;;;5035197;28;20037;-45
2023/10/27 05:12:43;;;;;;;5.82;3.10;;;;;;;;;;5034855;28;20041;-44
2023/10/27 05:15:10;;;;;;;6.85;3.00;;;;;;;;;;5017416;28;20484;-43
2023/10/27 05:17:37;;;;;;;6.05;3.05;;;;;;;;;;5034816;28;20495;-45
2023/10/27 05:20:05;;;;;;;5.38;3.00;;;;;;;;;;5034900;28;20049;-43
2023/10/27 05:22:32;;;;;;;6.13;3.00;;;;;;;;;;5034726;28;20083;-43
2023/10/27 05:25:03;;;;;;;6.28;2.92;;;;;;;;;;5034822;28;20022;-43
2023/10/27 05:27:30;;;;;;;5.20;2.70;;;;;;;;;;5034550;28;20053;-44
2023/10/27 05:29:57;;;;;;;6.72;3.00;;;;;;;;;;5034926;28;20535;-43
2023/10/27 05:32:24;;;;;;;6.18;2.83;;;;;;;;;;5034463;28;20059;-43
2023/10/27 05:34:51;;;;;;;5.22;3.08;;;;;;;;;;5034526;28;20021;-44
2023/10/27 05:37:19;;;;;;;5.80;3.10;;;;;;;;;;5034427;28;20048;-43
2023/10/27 05:39:46;;;;;;;5.65;2.70;;;;;;;;;;5034324;28;20029;-43
2023/10/27 05:42:13;;;;;;;5.47;2.85;;;;;;;;;;5034526;28;20042;-45
2023/10/27 05:44:41;;;;;;;6.32;2.90;;;;;;;;;;5034413;28;20566;-48
2023/10/27 05:47:08;;;;;;;5.32;2.70;;;;;;;;;;5034431;28;20059;-46
2023/10/27 05:49:36;;;;;;;4.68;2.65;;;;;;;;;;5016498;28;20396;-49
2023/10/27 05:52:03;;;;;;;4.68;2.65;;;;;;;;;;5034199;28;20075;-44
2023/10/27 05:54:31;;;;;;;5.07;2.38;;;;;;;;;;5034328;28;20030;-45
2023/10/27 05:56:58;;;;;;;3.97;2.30;;;;;;;;;;5034037;28;20084;-43
2023/10/27 05:59:25;;;;;;;5.47;2.78;;;;;;;;;;5034140;28;20143;-44
2023/10/27 06:01:54;;;;;;;6.72;2.63;;;;;;;;;;5032218;28;20029;-45
2023/10/27 06:04:21;;;;;;;6.85;2.70;;;;;;;;;;5034194;28;20029;-45
2023/10/27 06:06:48;;;;;;;4.40;2.38;;;;;;;;;;5033900;28;20092;-44
2023/10/27 06:09:15;;;;;;;5.30;2.65;;;;;;;;;;5033984;28;20064;-44
2023/10/27 06:11:42;;;;;;;5.43;2.22;;;;;;;;;;5033148;28;20029;-44
2023/10/27 06:14:09;;;;;;;3.63;2.25;;;;;;;;;;5033916;28;20025;-44
2023/10/27 06:16:37;;;;;;;4.90;2.25;;;;;;;;;;5033811;28;20029;-44
2023/10/27 06:19:04;;;;;;;5.68;2.70;;;;;;;;;;5033726;28;20120;-44
2023/10/27 06:21:31;;;;;;;3.13;1.90;;;;;;;;;;5033856;28;20504;-44
2023/10/27 06:23:58;;;;;;;4.70;2.38;;;;;;;;;;5033730;28;20033;-44
2023/10/27 06:26:25;;;;;;;4.57;2.40;;;;;;;;;;5033618;28;20096;-45
2023/10/27 06:28:53;;;;;;;3.15;1.88;;;;;;;;;;5033419;28;20140;-44
2023/10/27 06:31:20;;;;;;;4.13;2.33;;;;;;;;;;5033108;28;20116;-46
2023/10/27 06:33:48;;;;;;;3.78;2.20;;;;;;;;;;5033517;28;20522;-44
2023/10/27 06:36:15;;;;;;;4.00;2.13;;;;;;;;;;5033340;28;20028;-43
2023/10/27 06:38:42;;;;;;;4.80;2.25;;;;;;;;;;5033361;28;20025;-44
2023/10/27 06:41:09;;;;;;;5.15;2.30;;;;;;;;;;5033378;28;20104;-44
2023/10/27 06:43:35;;;;;;;5.03;2.30;;;;;;;;;;5033277;28;20376;-44
2023/10/27 06:46:02;;;;;;;4.82;2.00;;;;;;;;;;5033281;28;20030;-43
2023/10/27 06:48:30;;;;;;;3.17;2.08;;;;;;;;;;5033330;28;20084;-44
2023/10/27 06:50:57;;;;;;;3.83;1.98;;;;;;;;;;5033295;28;20550;-43
2023/10/27 06:53:24;;;;;;;3.88;2.00;;;;;;;;;;5033176;28;20064;-44
2023/10/27 06:55:51;;;;;;;4.65;1.95;;;;;;;;;;5033096;28;20911;-45
2023/10/27 06:58:18;;;;;;;3.00;1.90;;;;;;;;;;5032925;28;20113;-45
2023/10/27 07:00:45;;;;;;;3.08;1.67;;;;;;;;;;5033062;28;20097;-44
2023/10/27 07:03:12;;;;;;;3.78;2.00;;;;;;;;;;5032996;28;20033;-44
2023/10/27 07:05:39;;;;;;;3.22;1.88;;;;;;;;;;5032891;28;20449;-43
2023/10/27 07:08:06;;;;;;;3.08;1.80;;;;;;;;;;5032767;28;20053;-44
2023/10/27 07:10:34;;;;;;;4.63;2.20;;;;;;;;;;5032848;28;20025;-44
2023/10/27 07:13:01;;;;;;;5.00;2.20;;;;;;;;;;5032686;28;20060;-44
2023/10/27 07:15:28;;;;;;;3.13;1.80;;;;;;;;;;5032773;28;20037;-43
2023/10/27 07:17:55;;;;;;;3.13;1.90;;;;;;;;;;5032535;28;20065;-44
2023/10/27 07:20:22;;;;;;;3.83;1.90;;;;;;;;;;5032632;28;20032;-45
2023/10/27 07:22:49;;;;;;;3.75;1.90;;;;;;;;;;5032475;28;20022;-44
2023/10/27 07:25:16;;;;;;;4.05;1.92;;;;;;;;;;5032573;28;20021;-45
2023/10/27 07:27:43;;;;;;;4.78;1.80;;;;;;;;;;5032389;28;20466;-43
2023/10/27 07:30:10;;;;;;;2.80;1.50;;;;;;;;;;5032519;28;20034;-43
2023/10/27 07:32:37;;;;;;;3.58;1.88;;;;;;;;;;5032209;28;20073;-43
2023/10/27 07:35:04;;;;;;;2.75;1.63;;;;;;;;;;5032263;28;20025;-43
2023/10/27 07:37:31;;;;;;;3.10;1.83;;;;;;;;;;5032253;28;20062;-43
2023/10/27 07:39:58;;;;;;;3.40;1.80;;;;;;;;;;5032360;28;20021;-44
2023/10/27 07:42:25;;;;;;;4.20;1.85;;;;;;;;;;5032267;28;20091;-43
2023/10/27 07:44:52;;;;;;;5.00;1.48;;;;;;;;;;5032339;28;20545;-45
2023/10/27 07:47:19;;;;;;;2.63;1.60;;;;;;;;;;5032078;28;20045;-43
2023/10/27 07:49:46;;;;;;;2.40;1.70;;;;;;;;;;5032136;28;20021;-43
2023/10/27 07:52:13;;;;;;;2.17;1.50;;;;;;;;;;5032131;28;20029;-43
2023/10/27 07:54:40;;;;;;;3.00;1.48;;;;;;;;;;5032102;28;20487;-43
2023/10/27 07:57:07;;;;;;;2.58;1.48;;;;;;;;;;5031841;28;20022;-43
2023/10/27 07:59:34;;;;;;;3.45;1.67;;;;;;;;;;5032006;28;20506;-43
2023/10/27 08:02:01;;;;;;;3.45;1.52;;;;;;;;;;5031936;28;20480;-43
2023/10/27 08:04:32;;;;;;;3.03;1.50;;;;;;;;;;5032001;28;20025;-44
2023/10/27 08:06:59;;;;;;;2.63;1.52;;;;;;;;;;5031702;28;20105;-47
2023/10/27 08:09:26;;;;;;;2.83;1.60;;;;;;;;;;5031813;28;20025;-43
2023/10/27 08:11:53;;;;;;;2.45;1.63;;;;;;;;;;5031870;28;20423;-43
2023/10/27 08:14:20;;;;;;;2.55;1.27;;;;;;;;;;5031703;28;20028;-43
2023/10/27 08:16:47;;;;;;;1.98;1.45;;;;;;;;;;5031478;28;20032;-43
2023/10/27 08:21:50;;;;;;;2.38;1.27;;;;;;;;;;5075162;22;20518;-43
2023/10/27 08:24:17;;;;;;;3.65;1.90;;;;;;;;;;5031752;28;20029;-41
2023/10/27 08:26:44;;;;;;;1.55;1.27;;;;;;;;;;5031601;28;20029;-41
2023/10/27 08:29:11;;;;;;;2.25;1.60;;;;;;;;;;5031699;28;20548;-41
2023/10/27 08:31:38;;;;;;;2.08;1.27;;;;;;;;;;5031545;28;20021;-41
2023/10/27 08:34:10;;;;;;;2.33;1.40;;;;;;;;;;5035060;28;20022;-42
2023/10/27 08:36:37;;;;;;;;;;;;;;;;;;5038487;28;20087;-41
2023/10/27 08:39:05;;;;;;;2.45;1.25;;;;;;;;;;5037941;28;20259;-43
2023/10/27 08:41:36;;;;;;;2.10;1.40;;;;;;;;;;5037833;28;20037;-43
2023/10/27 08:44:03;;;;;;;2.40;1.42;;;;;;;;;;5037872;28;20029;-43
2023/10/27 08:46:30;;;;;;;2.20;1.15;;;;;;;;;;5038147;28;20045;-42
2023/10/27 08:48:57;;;;;;;2.75;1.38;;;;;;;;;;5038144;28;20022;-43
2023/10/27 08:51:24;;;;;;;2.35;1.45;;;;;;;;;;5037955;28;20025;-43
2023/10/27 08:53:54;;;;;;;1.60;1.38;;;;;;;;;;5037938;28;20049;-41
2023/10/27 08:56:21;;;;;;;1.75;1.20;;;;;;;;;;5037994;28;20116;-44
2023/10/27 08:58:48;;;;;;;2.45;1.10;;;;;;;;;;5037898;28;20088;-43
2023/10/27 09:01:15;;;;;;;2.10;1.40;;;;;;;;;;5037888;28;20018;-43
2023/10/27 09:03:42;;;;;;;1.88;1.17;;;;;;;;;;5037885;28;20100;-43
2023/10/27 09:06:09;;;;;;;1.92;1.33;;;;;;;;;;5037881;28;20022;-43
2023/10/27 09:08:36;;;;;;;2.10;1.30;;;;;;;;;;5037878;28;20032;-43
2023/10/27 09:11:03;;;;;;;2.70;1.40;;;;;;;;;;5037781;28;20036;-41
2023/10/27 09:13:39;;;;;;;2.33;1.20;;;;;;;;;;5037893;28;20026;-41
2023/10/27 09:16:06;;;;;;;2.35;1.30;;;;;;;;;;5038030;28;20442;-41
2023/10/27 09:18:38;;;;;;;1.70;1.15;;;;;;;;;;5037680;28;20538;-42
2023/10/27 09:21:05;;;;;;;2.67;1.20;;;;;;;;;;5037537;28;20084;-41
2023/10/27 09:23:44;;;;;;;1.80;1.30;;;;;;;;;;5037574;28;20563;-42
2023/10/27 09:26:11;;;;;;;2.58;1.17;;;;;;;;;;5037501;28;20033;-41
2023/10/27 09:28:39;;;;;;;1.92;1.23;;;;;;;;;;5037751;28;20083;-41
2023/10/27 09:31:06;;;;;;;1.63;1.08;;;;;;;;;;5037596;28;20549;-41
2023/10/27 09:33:33;;;;;;;2.47;0.98;;;;;;;;;;5037662;28;20387;-42
2023/10/27 09:36:02;;;;;;;2.60;1.20;;;;;;;;;;5037232;28;20464;-41
2023/10/27 09:38:29;;;;;;;2.85;1.13;;;;;;;;;;5037418;28;20057;-43
2023/10/27 09:40:57;;;;;;;1.92;1.15;;;;;;;;;;5037540;28;20487;-43
2023/10/27 09:43:24;;;;;;;2.72;1.23;;;;;;;;;;5037332;28;20033;-43
2023/10/27 09:45:55;;;;;;;2.60;1.30;;;;;;;;;;5034237;28;20116;-43
2023/10/27 09:48:30;;;;;;;1.50;1.00;;;;;;;;;;5034363;28;20033;-44
2023/10/27 09:51:00;;;;;;;2.17;1.20;;;;;;;;;;5034187;28;20025;-43
2023/10/27 09:53:29;;;;;;;1.73;1.10;;;;;;;;;;5034135;28;20479;-43
2023/10/27 09:55:57;;;;;;;1.42;1.02;;;;;;;;;;5034333;28;20387;-42
2023/10/27 09:58:29;;;;;;;1.88;1.20;;;;;;;;;;5033695;28;20038;-41
2023/10/27 10:00:59;;;;;;;1.98;1.15;;;;;;;;;;5034258;28;20041;-45
2023/10/27 10:03:29;;;;;;;3.28;1.38;;;;;;;;;;5034094;28;20025;-42
2023/10/27 10:06:12;;;;;;;6.10;1.42;;;;;;;;;;5034112;28;20037;-40
2023/10/27 10:08:40;;;;;;;5.53;1.27;;;;;;;;;;5033916;28;20069;-41
2023/10/27 10:11:13;;;;;;;3.13;1.50;;;;;;;;;;5031975;28;20037;-40
2023/10/27 10:13:40;;;;;;;9.10;1.80;;;;;;;;;;5032807;28;20041;-41
2023/10/27 10:16:08;;;;;;;8.43;1.25;;;;;;;;;;5033607;28;20036;-41
2023/10/27 10:18:44;;;;;;;3.42;1.55;;;;;;;;;;5033407;28;20435;-40
2023/10/27 10:21:11;;;;;;;7.28;1.40;;;;;;;;;;5033371;28;20837;-41
2023/10/27 10:23:40;;;;;;;3.03;1.40;;;;;;;;;;5033502;28;20112;-40
2023/10/27 10:26:07;;;;;;;4.80;1.42;;;;;;;;;;5033472;28;20057;-41
2023/10/27 10:28:36;;;;;;;4.60;1.10;;;;;;;;;;5037153;28;20030;-40
2023/10/27 10:31:10;;;;;;;2.38;1.23;;;;;;;;;;5033214;28;20040;-40
2023/10/27 10:33:37;;;;;;;3.55;1.40;;;;;;;;;;5015442;28;20076;-40
2023/10/27 10:36:22;;;;;;;4.72;1.55;;;;;;;;;;5033377;28;20044;-40
2023/10/27 10:38:52;;;;;;;5.22;1.55;;;;;;;;;;5033041;28;20087;-42
2023/10/27 10:41:19;;;;;;;3.47;1.20;;;;;;;;;;5033286;28;20040;-40
2023/10/27 10:44:06;;;;;;;6.50;1.48;;;;;;;;;;5033172;28;20033;-41
2023/10/27 10:46:33;;;;;;;4.35;1.30;;;;;;;;;;5033234;28;20079;-42
2023/10/27 10:49:01;;;;;;;3.58;1.65;;;;;;;;;;5032902;28;20022;-40
2023/10/27 10:51:36;;;;;;;2.88;1.30;;;;;;;;;;5032882;28;20124;-40
2023/10/27 10:54:03;;;;;;;4.97;1.45;;;;;;;;;;5032883;28;20163;-40
2023/10/27 10:56:30;;;;;;;5.38;1.30;;;;;;;;;;5032661;28;20116;-40
2023/10/27 10:58:59;;;;;;;8.60;1.55;;;;;;;;;;5032720;28;20033;-42
2023/10/27 11:01:26;;;;;;;5.13;1.20;;;;;;;;;;5032710;28;20642;-41
2023/10/27 11:03:55;;;;;;;4.40;1.15;;;;;;;;;;5032806;28;20029;-40
2023/10/27 11:06:22;;;;;;;3.97;1.20;;;;;;;;;;5032595;28;20029;-40
2023/10/27 11:08:50;;;;;;;3.53;1.00;;;;;;;;;;5032537;28;20391;-41
2023/10/27 11:11:17;;;;;;;7.07;1.13;;;;;;;;;;5032296;28;20033;-45
2023/10/27 11:13:49;;;;;;;10.73;1.60;;;;;;;;;;5032640;28;20065;-40
2023/10/27 11:16:26;;;;;;;4.65;1.50;;;;;;;;;;5032631;28;20112;-39
2023/10/27 11:18:57;;;;;;;49.85;2.58;;;;;;;;;;5026946;28;20037;-34
2023/10/27 11:21:24;;;;;;;30.70;2.47;;;;;;;;;;5031735;28;20618;-33
2023/10/27 11:23:52;;;;;;;26.08;2.22;;;;;;;;;;5029319;28;20428;-33
2023/10/27 11:26:22;;;;;;;85.18;5.93;;;;;;;;;;5031917;28;20057;-33
2023/10/27 11:28:49;;;;;;;85.65;6.25;;;;;;;;;;5032156;28;20102;-34
2023/10/27 11:31:25;;;;;;;30.25;3.17;;;;;;;;;;5031757;28;20039;-36
2023/10/27 11:33:59;;;;;;;32.75;2.63;;;;;;;;;;5030591;28;20510;-34
2023/10/27 11:36:31;;;;;;;14.32;2.40;;;;;;;;;;5032158;28;20033;-32
2023/10/27 11:39:18;;;;;;;10.85;1.85;;;;;;;;;;5031425;28;20044;-32
2023/10/27 11:41:48;;;;;;;9.35;1.40;;;;;;;;;;5031855;28;20163;-32
2023/10/27 11:44:16;;;;;;;11.77;1.92;;;;;;;;;;5030406;28;20041;-33
2023/10/27 11:46:50;;;;;;;22.48;2.85;;;;;;;;;;5031529;28;20039;-45
2023/10/27 11:49:17;;;;;;;28.25;2.47;;;;;;;;;;5035775;28;20033;-44
2023/10/27 11:51:44;;;;;;;19.63;2.85;;;;;;;;;;5051619;28;20032;-46
2023/10/27 11:54:12;;;;;;;33.03;3.28;;;;;;;;;;5036161;28;20040;-49
2023/10/27 11:56:39;;;;;;;17.40;3.08;;;;;;;;;;5020059;28;20846;-40
2023/10/27 11:59:07;;;;;;;24.85;3.50;;;;;;;;;;5010200;28;20127;-33
2023/10/27 12:01:34;;;;;;;33.38;4.03;;;;;;;;;;5030910;28;20037;-35
2023/10/27 12:04:01;;;;;;;24.80;3.25;;;;;;;;;;5030860;28;20025;-40
2023/10/27 12:06:30;;;;;;;22.17;3.33;;;;;;;;;;5029616;28;20026;-38
2023/10/27 12:08:57;;;;;;;24.23;3.10;;;;;;;;;;5027312;28;20148;-47
2023/10/27 12:11:24;;;;;;;31.30;3.53;;;;;;;;;;5030300;28;20483;-39
2023/10/27 12:13:51;;;;;;;26.33;3.38;;;;;;;;;;5030479;28;20548;-36
2023/10/27 12:16:18;;;;;;;20.98;3.00;;;;;;;;;;5028810;28;20044;-46
2023/10/27 12:18:45;;;;;;;22.20;3.47;;;;;;;;;;5030254;28;20034;-39
2023/10/27 12:21:12;;;;;;;19.35;2.83;;;;;;;;;;5008392;28;20045;-50
2023/10/27 12:23:39;;;;;;;13.82;2.30;;;;;;;;;;5030092;28;20021;-39
2023/10/27 12:26:07;;;;;;;15.98;1.98;;;;;;;;;;5030854;28;20025;-42
2023/10/27 12:28:35;;;;;;;14.38;2.15;;;;;;;;;;5029438;28;20084;-39
2023/10/27 12:31:02;;;;;;;17.50;1.98;;;;;;;;;;5030363;28;20025;-39
2023/10/27 12:33:30;;;;;;;19.50;3.72;;;;;;;;;;5026527;28;20652;-37
2023/10/27 12:35:57;;;;;;;10.82;2.63;;;;;;;;;;5030576;28;20376;-39
2023/10/27 12:38:24;;;;;;;13.90;3.70;;;;;;;;;;5026439;28;20107;-41
2023/10/27 12:40:51;;;;;;;15.35;5.30;;;;;;;;;;5028925;28;20115;-40
2023/10/27 12:43:19;;;;;;;17.02;6.30;;;;;;;;;;5029439;28;20036;-37
2023/10/27 12:45:47;;;;;;;50.28;22.88;;;;;;;;;;5026105;28;20033;-41
2023/10/27 12:48:14;;;;;;;29.83;12.05;;;;;;;;;;5013219;28;20044;-45
2023/10/27 12:50:44;;;;;;;21.17;9.07;;;;;;;;;;5030163;28;20511;-45
2023/10/27 12:53:12;;;;;;;19.92;8.55;;;;;;;;;;5030325;28;20029;-44
2023/10/27 12:55:39;;;;;;;18.17;6.80;;;;;;;;;;5029279;28;20033;-38
2023/10/27 12:58:08;;;;;;;21.42;5.03;;;;;;;;;;5026890;28;20038;-40
2023/10/27 13:00:35;;;;;;;13.90;3.80;;;;;;;;;;5029204;28;20128;-43
2023/10/27 13:03:02;;;;;;;14.82;3.40;;;;;;;;;;5029903;28;20639;-43
2023/10/27 13:05:29;;;;;;;14.02;2.85;;;;;;;;;;5030333;28;20084;-41
2023/10/27 13:07:57;;;;;;;13.77;2.83;;;;;;;;;;5023175;28;20036;-39
2023/10/27 13:10:24;;;;;;;13.65;2.03;;;;;;;;;;5008665;28;20379;-41
2023/10/27 13:13:00;;;;;;;10.45;2.13;;;;;;;;;;5028497;28;20025;-42
2023/10/27 13:15:27;;;;;;;11.50;1.95;;;;;;;;;;5029014;28;20049;-41
2023/10/27 13:17:54;;;;;;;11.70;2.03;;;;;;;;;;5030363;28;20637;-44
2023/10/27 13:20:21;;;;;;;5.32;1.40;;;;;;;;;;5029250;28;20053;-44
2023/10/27 13:22:48;;;;;;;4.85;1.40;;;;;;;;;;5029269;28;20025;-42
2023/10/27 13:25:15;;;;;;;10.10;1.73;;;;;;;;;;5034492;28;20047;-42
2023/10/27 13:27:44;;;;;;;4.90;1.58;;;;;;;;;;5034531;28;20083;-44
2023/10/27 13:30:11;;;;;;;18.52;1.40;;;;;;;;;;5034316;28;20030;-44
2023/10/27 13:32:38;;;;;;;12.68;1.70;;;;;;;;;;5034530;28;20025;-44
2023/10/27 13:35:06;;;;;;;9.88;1.27;;;;;;;;;;5016493;28;20029;-44
2023/10/27 13:37:33;;;;;;;7.32;1.40;;;;;;;;;;5034244;28;20116;-47
2023/10/27 13:40:00;;;;;;;9.90;1.42;;;;;;;;;;5031462;28;20026;-43
2023/10/27 13:42:27;;;;;;;10.73;1.00;;;;;;;;;;5016689;28;20101;-43
2023/10/27 13:44:54;;;;;;;21.33;1.50;;;;;;;;;;5026330;28;20037;-43
2023/10/27 13:47:21;;;;;;;9.73;1.52;;;;;;;;;;5017851;28;20494;-43
2023/10/27 13:49:53;;;;;;;13.00;1.42;;;;;;;;;;5020690;28;20025;-43
2023/10/27 13:52:20;;;;;;;9.48;2.25;;;;;;;;;;5017321;28;20412;-44
2023/10/27 13:54:47;;;;;;;13.40;1.75;;;;;;;;;;5019955;28;20022;-43
2023/10/27 13:57:14;;;;;;;16.67;2.00;;;;;;;;;;5016697;28;20030;-43
2023/10/27 13:59:41;;;;;;;11.02;1.55;;;;;;;;;;5026017;28;20041;-43
2023/10/27 14:02:09;;;;;;;11.45;1.50;;;;;;;;;;5020779;28;20069;-47
2023/10/27 14:04:37;;;;;;;11.30;1.77;;;;;;;;;;5014200;28;20395;-43
2023/10/27 14:07:04;;;;;;;11.35;1.60;;;;;;;;;;5020342;28;20504;-45
2023/10/27 14:09:32;;;;;;;5.45;1.00;;;;;;;;;;5027951;28;20037;-43
2023/10/27 14:12:00;;;;;;;10.38;1.35;;;;;;;;;;5031377;28;20025;-43
2023/10/27 14:14:27;;;;;;;12.75;1.30;;;;;;;;;;5024501;28;20052;-44
2023/10/27 14:16:54;;;;;;;10.52;1.30;;;;;;;;;;5033680;28;20505;-44
2023/10/27 14:19:21;;;;;;;11.63;1.40;;;;;;;;;;5025949;28;20045;-44
2023/10/27 14:21:48;;;;;;;14.43;1.55;;;;;;;;;;5033265;28;20045;-44
2023/10/27 14:24:17;;;;;;;14.15;1.38;;;;;;;;;;5033317;28;20027;-43
2023/10/27 14:26:46;;;;;;;13.05;1.75;;;;;;;;;;5033437;28;20030;-40
2023/10/27 14:29:13;;;;;;;9.02;1.48;;;;;;;;;;5023661;28;20335;-42
2023/10/27 14:31:40;;;;;;;16.33;1.98;;;;;;;;;;5025698;28;20033;-42
2023/10/27 14:34:08;;;;;;;19.58;1.90;;;;;;;;;;5024297;28;20033;-41
2023/10/27 14:36:35;;;;;;;12.77;1.85;;;;;;;;;;5032820;28;20028;-39
2023/10/27 14:39:05;;;;;;;10.75;1.30;;;;;;;;;;5033066;28;20041;-39
2023/10/27 14:41:34;;;;;;;11.45;1.80;;;;;;;;;;5033117;28;20038;-39